createdAt,value
2023-02-18T00:00:57.605Z,12.54
2023-02-18T00:01:57.616Z,12.52
2023-02-18T00:02:57.612Z,12.57
2023-02-18T00:03:57.580Z,12.48
2023-02-18T00:04:58.589Z,12.59
2023-02-18T00:05:57.576Z,12.60
2023-02-18T00:06:57.589Z,12.64
2023-02-18T00:07:57.668Z,12.60
2023-02-18T00:08:57.555Z,12.45
2023-02-18T00:09:57.544Z,12.54
2023-02-18T00:10:57.543Z,12.67
2023-02-18T00:11:57.539Z,12.54
2023-02-18T00:12:57.539Z,12.54
2023-02-18T00:13:57.527Z,12.48
2023-02-18T00:14:57.525Z,12.49
2023-02-18T00:15:57.523Z,12.56
2023-02-18T00:16:57.506Z,12.59
2023-02-18T00:17:57.507Z,12.57
2023-02-18T00:18:57.505Z,12.57
2023-02-18T00:19:57.497Z,12.60
2023-02-18T00:20:57.483Z,12.56
2023-02-18T00:21:57.474Z,12.59
2023-02-18T00:22:57.459Z,12.63
2023-02-18T00:23:57.499Z,12.77
2023-02-18T00:24:57.464Z,12.75
2023-02-18T00:25:57.439Z,12.67
2023-02-18T00:26:57.433Z,12.63
2023-02-18T00:27:57.432Z,12.69
2023-02-18T00:28:57.426Z,12.75
2023-02-18T00:29:57.513Z,12.74
2023-02-18T00:30:57.440Z,12.70
2023-02-18T00:31:57.665Z,12.71
2023-02-18T00:32:57.409Z,12.75
2023-02-18T00:33:57.395Z,12.67
2023-02-18T00:34:57.638Z,12.63
2023-02-18T00:35:57.354Z,12.45
2023-02-18T00:36:57.395Z,12.51
2023-02-18T00:37:57.383Z,12.27
2023-02-18T00:38:57.365Z,12.42
2023-02-18T00:39:57.361Z,12.29
2023-02-18T00:40:57.339Z,12.29
2023-02-18T00:41:57.415Z,12.30
2023-02-18T00:42:57.344Z,12.44
2023-02-18T00:43:57.317Z,12.45
2023-02-18T00:44:57.310Z,12.51
2023-02-18T00:45:57.394Z,12.49
2023-02-18T00:46:57.299Z,12.46
2023-02-18T00:47:57.330Z,12.45
2023-02-18T00:48:57.301Z,12.44
2023-02-18T00:49:57.303Z,12.52
2023-02-18T00:50:57.280Z,12.57
2023-02-18T00:51:57.310Z,12.64
2023-02-18T00:52:57.291Z,12.54
2023-02-18T00:53:57.285Z,12.66
2023-02-18T00:54:57.254Z,12.78
2023-02-18T00:55:57.258Z,12.59
2023-02-18T00:56:57.238Z,12.46
2023-02-18T00:57:57.262Z,12.48
2023-02-18T00:58:57.232Z,12.42
2023-02-18T00:59:57.242Z,12.44
2023-02-18T01:00:57.210Z,12.59
2023-02-18T01:01:57.250Z,12.74
2023-02-18T01:02:57.199Z,12.81
2023-02-18T01:03:57.192Z,12.64
2023-02-18T01:04:57.315Z,12.70
2023-02-18T01:05:57.193Z,12.70
2023-02-18T01:06:57.183Z,12.69
2023-02-18T01:07:57.181Z,12.63
2023-02-18T01:08:57.170Z,12.60
2023-02-18T01:09:57.155Z,12.62
2023-02-18T01:10:57.173Z,12.70
2023-02-18T01:11:57.142Z,12.63
2023-02-18T01:12:57.150Z,12.54
2023-02-18T01:13:57.145Z,12.74
2023-02-18T01:14:57.142Z,12.77
2023-02-18T01:15:57.133Z,12.77
2023-02-18T01:16:57.131Z,12.67
2023-02-18T01:17:57.120Z,12.45
2023-02-18T01:18:57.128Z,12.48
2023-02-18T01:19:57.154Z,12.45
2023-02-18T01:20:57.103Z,12.45
2023-02-18T01:21:57.075Z,12.37
2023-02-18T01:22:57.096Z,12.29
2023-02-18T01:23:57.108Z,12.26
2023-02-18T01:24:57.056Z,12.48
2023-02-18T01:25:57.059Z,12.45
2023-02-18T01:26:57.057Z,12.54
2023-02-18T01:27:57.044Z,12.46
2023-02-18T01:28:57.039Z,12.48
2023-02-18T01:29:57.089Z,12.60
2023-02-18T01:30:57.078Z,12.66
2023-02-18T01:31:57.172Z,12.52
2023-02-18T01:32:57.005Z,12.56
2023-02-18T01:33:57.034Z,12.42
2023-02-18T01:34:57.009Z,12.48
2023-02-18T01:35:56.988Z,12.41
2023-02-18T01:36:57.004Z,12.57
2023-02-18T01:37:56.978Z,12.48
2023-02-18T01:38:56.988Z,12.48
2023-02-18T01:39:56.962Z,12.49
2023-02-18T01:40:56.956Z,12.34
2023-02-18T01:41:56.942Z,12.23
2023-02-18T01:42:56.957Z,12.29
2023-02-18T01:43:56.976Z,12.12
2023-02-18T01:44:56.940Z,11.93
2023-02-18T01:45:56.911Z,11.87
2023-02-18T01:46:56.972Z,12.15
2023-02-18T01:47:56.911Z,12.30
2023-02-18T01:48:56.896Z,12.44
2023-02-18T01:49:56.898Z,12.42
2023-02-18T01:50:56.883Z,12.38
2023-02-18T01:51:57.888Z,12.46
2023-02-18T01:52:56.878Z,12.44
2023-02-18T01:53:56.882Z,12.45
2023-02-18T01:54:56.885Z,12.45
2023-02-18T01:55:56.857Z,12.64
2023-02-18T01:56:56.866Z,12.57
2023-02-18T01:57:56.840Z,12.63
2023-02-18T01:58:56.837Z,12.79
2023-02-18T01:59:56.841Z,12.62
2023-02-18T02:00:56.855Z,12.69
2023-02-18T02:01:56.928Z,12.74
2023-02-18T02:02:56.816Z,12.64
2023-02-18T02:03:56.809Z,12.59
2023-02-18T02:04:56.813Z,12.67
2023-02-18T02:05:56.794Z,12.74
2023-02-18T02:06:56.782Z,12.69
2023-02-18T02:07:56.777Z,12.66
2023-02-18T02:08:56.778Z,12.67
2023-02-18T02:09:56.800Z,12.74
2023-02-18T02:10:56.760Z,12.63
2023-02-18T02:11:56.753Z,12.51
2023-02-18T02:12:56.752Z,12.62
2023-02-18T02:13:56.740Z,12.63
2023-02-18T02:14:56.728Z,12.66
2023-02-18T02:15:56.768Z,12.69
2023-02-18T02:16:56.714Z,12.74
2023-02-18T02:17:56.697Z,12.63
2023-02-18T02:18:56.714Z,12.56
2023-02-18T02:19:56.692Z,12.57
2023-02-18T02:20:56.722Z,12.64
2023-02-18T02:21:56.675Z,12.54
2023-02-18T02:22:56.685Z,12.59
2023-02-18T02:23:56.661Z,12.70
2023-02-18T02:24:56.658Z,12.54
2023-02-18T02:25:56.653Z,12.46
2023-02-18T02:26:56.701Z,12.39
2023-02-18T02:27:56.636Z,12.41
2023-02-18T02:28:56.637Z,12.56
2023-02-18T02:29:56.683Z,12.60
2023-02-18T02:30:56.703Z,12.64
2023-02-18T02:31:56.674Z,12.60
2023-02-18T02:32:56.603Z,12.59
2023-02-18T02:33:56.613Z,12.64
2023-02-18T02:34:56.595Z,12.81
2023-02-18T02:35:56.573Z,12.81
2023-02-18T02:36:56.574Z,12.79
2023-02-18T02:37:56.589Z,12.66
2023-02-18T02:38:56.572Z,12.69
2023-02-18T02:39:56.564Z,12.66
2023-02-18T02:40:56.557Z,12.71
2023-02-18T02:41:56.602Z,12.77
2023-02-18T02:42:56.549Z,12.63
2023-02-18T02:43:56.536Z,12.69
2023-02-18T02:44:56.537Z,12.63
2023-02-18T02:45:56.572Z,12.56
2023-02-18T02:46:56.513Z,12.54
2023-02-18T02:47:56.538Z,12.46
2023-02-18T02:48:56.535Z,12.56
2023-02-18T02:49:56.494Z,12.51
2023-02-18T02:50:56.485Z,12.48
2023-02-18T02:51:56.493Z,12.45
2023-02-18T02:52:56.480Z,12.54
2023-02-18T02:53:56.468Z,12.56
2023-02-18T02:54:56.512Z,12.57
2023-02-18T02:55:56.478Z,12.38
2023-02-18T02:56:56.467Z,12.39
2023-02-18T02:57:56.468Z,12.48
2023-02-18T02:58:56.437Z,12.41
2023-02-18T02:59:56.440Z,12.51
2023-02-18T03:00:56.436Z,12.57
2023-02-18T03:01:56.444Z,12.38
2023-02-18T03:02:56.427Z,12.42
2023-02-18T03:03:56.398Z,12.16
2023-02-18T03:04:56.403Z,12.23
2023-02-18T03:05:56.396Z,12.27
2023-02-18T03:06:56.381Z,12.38
2023-02-18T03:07:56.403Z,12.45
2023-02-18T03:08:56.375Z,12.45
2023-02-18T03:09:56.366Z,12.57
2023-02-18T03:10:56.362Z,12.57
2023-02-18T03:11:56.363Z,12.62
2023-02-18T03:12:56.343Z,12.64
2023-02-18T03:13:56.356Z,12.66
2023-02-18T03:14:56.351Z,12.74
2023-02-18T03:15:56.329Z,12.70
2023-02-18T03:16:56.338Z,12.75
2023-02-18T03:17:56.328Z,12.71
2023-02-18T03:18:56.327Z,12.64
2023-02-18T03:19:56.320Z,12.49
2023-02-18T03:20:56.298Z,12.54
2023-02-18T03:21:56.289Z,12.46
2023-02-18T03:22:56.282Z,12.57
2023-02-18T03:23:56.272Z,12.60
2023-02-18T03:24:56.265Z,12.46
2023-02-18T03:25:56.273Z,12.49
2023-02-18T03:26:56.254Z,12.59
2023-02-18T03:27:56.237Z,12.51
2023-02-18T03:28:56.251Z,12.75
2023-02-18T03:29:56.281Z,12.62
2023-02-18T03:30:56.231Z,12.59
2023-02-18T03:31:56.369Z,12.64
2023-02-18T03:32:56.221Z,12.67
2023-02-18T03:33:56.231Z,12.51
2023-02-18T03:34:56.212Z,12.54
2023-02-18T03:35:56.217Z,12.52
2023-02-18T03:36:56.209Z,12.56
2023-02-18T03:37:56.180Z,12.46
2023-02-18T03:38:56.176Z,12.41
2023-02-18T03:39:56.174Z,12.33
2023-02-18T03:40:56.165Z,12.48
2023-02-18T03:41:56.169Z,12.42
2023-02-18T03:42:56.176Z,12.33
2023-02-18T03:43:56.142Z,12.39
2023-02-18T03:44:56.151Z,12.31
2023-02-18T03:45:56.148Z,12.33
2023-02-18T03:46:56.144Z,12.34
2023-02-18T03:47:56.134Z,12.04
2023-02-18T03:48:56.119Z,12.12
2023-02-18T03:49:56.104Z,12.15
2023-02-18T03:50:56.102Z,12.04
2023-02-18T03:51:56.091Z,12.04
2023-02-18T03:52:56.094Z,12.09
2023-02-18T03:53:56.109Z,12.12
2023-02-18T03:54:56.053Z,12.06
2023-02-18T03:55:56.062Z,12.02
2023-02-18T03:56:56.053Z,12.13
2023-02-18T03:57:56.044Z,12.05
2023-02-18T03:58:56.056Z,12.02
2023-02-18T03:59:56.039Z,12.12
2023-02-18T04:00:57.050Z,12.19
2023-02-18T04:01:56.029Z,12.19
2023-02-18T04:02:56.022Z,12.20
2023-02-18T04:03:56.077Z,12.15
2023-02-18T04:04:56.006Z,12.09
2023-02-18T04:05:55.998Z,12.08
2023-02-18T04:06:56.016Z,12.11
2023-02-18T04:07:55.973Z,11.96
2023-02-18T04:08:55.991Z,11.97
2023-02-18T04:09:55.970Z,12.12
2023-02-18T04:10:55.957Z,12.02
2023-02-18T04:11:55.964Z,11.94
2023-02-18T04:12:55.931Z,12.12
2023-02-18T04:13:55.964Z,12.13
2023-02-18T04:14:55.943Z,12.04
2023-02-18T04:15:55.949Z,12.06
2023-02-18T04:16:55.990Z,11.90
2023-02-18T04:17:55.931Z,12.05
2023-02-18T04:18:55.897Z,12.23
2023-02-18T04:19:55.901Z,12.20
2023-02-18T04:20:55.909Z,12.42
2023-02-18T04:21:55.886Z,12.30
2023-02-18T04:22:55.872Z,12.16
2023-02-18T04:23:55.864Z,12.23
2023-02-18T04:24:55.890Z,12.23
2023-02-18T04:25:55.880Z,12.16
2023-02-18T04:26:55.854Z,12.15
2023-02-18T04:27:55.853Z,12.09
2023-02-18T04:28:55.850Z,12.13
2023-02-18T04:29:55.819Z,12.08
2023-02-18T04:30:55.876Z,12.08
2023-02-18T04:31:55.874Z,12.16
2023-02-18T04:32:55.804Z,12.19
2023-02-18T04:33:55.802Z,12.04
2023-02-18T04:34:55.799Z,12.09
2023-02-18T04:35:55.790Z,12.16
2023-02-18T04:36:56.800Z,12.20
2023-02-18T04:37:55.769Z,12.11
2023-02-18T04:38:55.783Z,12.13
2023-02-18T04:39:55.763Z,12.23
2023-02-18T04:40:55.761Z,12.12
2023-02-18T04:41:55.776Z,12.23
2023-02-18T04:42:55.761Z,12.21
2023-02-18T04:43:55.736Z,12.26
2023-02-18T04:44:55.737Z,12.20
2023-02-18T04:45:55.765Z,12.20
2023-02-18T04:46:55.713Z,12.13
2023-02-18T04:47:56.727Z,12.21
2023-02-18T04:48:55.696Z,12.24
2023-02-18T04:49:55.721Z,12.21
2023-02-18T04:50:55.709Z,12.23
2023-02-18T04:51:55.684Z,12.24
2023-02-18T04:52:55.675Z,12.42
2023-02-18T04:53:55.667Z,12.29
2023-02-18T04:54:55.676Z,12.23
2023-02-18T04:55:55.653Z,12.20
2023-02-18T04:56:55.650Z,12.31
2023-02-18T04:57:55.635Z,12.41
2023-02-18T04:58:55.627Z,12.27
2023-02-18T04:59:55.641Z,12.26
2023-02-18T05:00:55.632Z,12.19
2023-02-18T05:01:55.692Z,12.26
2023-02-18T05:02:55.601Z,12.23
2023-02-18T05:03:55.635Z,12.21
2023-02-18T05:04:55.579Z,12.26
2023-02-18T05:05:55.610Z,12.27
2023-02-18T05:06:56.568Z,12.31
2023-02-18T05:07:55.587Z,12.39
2023-02-18T05:08:55.582Z,12.44
2023-02-18T05:09:55.562Z,12.33
2023-02-18T05:10:55.581Z,12.33
2023-02-18T05:11:55.555Z,12.33
2023-02-18T05:12:55.536Z,12.45
2023-02-18T05:13:55.531Z,12.44
2023-02-18T05:14:55.528Z,12.39
2023-02-18T05:15:55.543Z,12.38
2023-02-18T05:16:55.527Z,12.57
2023-02-18T05:17:55.512Z,12.48
2023-02-18T05:18:55.507Z,12.34
2023-02-18T05:19:55.496Z,12.34
2023-02-18T05:20:55.492Z,12.27
2023-02-18T05:21:55.510Z,12.33
2023-02-18T05:22:55.469Z,12.42
2023-02-18T05:23:55.480Z,12.42
2023-02-18T05:24:55.494Z,12.34
2023-02-18T05:25:55.539Z,12.33
2023-02-18T05:26:55.446Z,12.37
2023-02-18T05:27:55.439Z,12.24
2023-02-18T05:28:55.429Z,12.33
2023-02-18T05:29:55.422Z,12.42
2023-02-18T05:30:55.474Z,12.26
2023-02-18T05:31:55.459Z,12.34
2023-02-18T05:32:55.402Z,12.41
2023-02-18T05:33:55.401Z,12.34
2023-02-18T05:34:55.404Z,12.34
2023-02-18T05:35:55.385Z,12.38
2023-02-18T05:36:55.401Z,12.46
2023-02-18T05:37:55.380Z,12.38
2023-02-18T05:38:55.365Z,12.34
2023-02-18T05:39:55.375Z,12.38
2023-02-18T05:40:55.354Z,12.51
2023-02-18T05:41:55.352Z,12.46
2023-02-18T05:42:55.349Z,12.49
2023-02-18T05:43:55.356Z,12.48
2023-02-18T05:44:55.319Z,12.34
2023-02-18T05:45:55.334Z,12.39
2023-02-18T05:46:55.327Z,12.45
2023-02-18T05:47:55.302Z,12.44
2023-02-18T05:48:55.319Z,12.54
2023-02-18T05:49:55.288Z,12.49
2023-02-18T05:50:55.295Z,12.38
2023-02-18T05:51:55.280Z,12.44
2023-02-18T05:52:55.263Z,12.30
2023-02-18T05:53:55.280Z,12.33
2023-02-18T05:54:55.253Z,12.38
2023-02-18T05:55:55.274Z,12.39
2023-02-18T05:56:55.242Z,12.54
2023-02-18T05:57:55.229Z,12.23
2023-02-18T05:58:55.292Z,12.30
2023-02-18T05:59:55.238Z,12.39
2023-02-18T06:00:55.232Z,12.20
2023-02-18T06:01:55.248Z,12.20
2023-02-18T06:02:55.247Z,12.19
2023-02-18T06:03:55.232Z,12.12
2023-02-18T06:04:55.224Z,12.11
2023-02-18T06:05:55.242Z,12.12
2023-02-18T06:06:56.075Z,12.08
2023-02-18T06:07:56.693Z,12.04
2023-02-18T06:08:56.204Z,12.06
2023-02-18T06:09:55.171Z,12.08
2023-02-18T06:10:55.179Z,12.13
2023-02-18T06:11:55.160Z,12.13
2023-02-18T06:12:55.151Z,12.09
2023-02-18T06:13:55.120Z,12.02
2023-02-18T06:14:55.157Z,12.12
2023-02-18T06:15:55.338Z,11.94
2023-02-18T06:16:55.130Z,12.15
2023-02-18T06:17:55.128Z,12.02
2023-02-18T06:18:55.122Z,12.04
2023-02-18T06:19:55.106Z,11.96
2023-02-18T06:20:55.086Z,11.86
2023-02-18T06:21:55.086Z,11.89
2023-02-18T06:22:55.093Z,11.93
2023-02-18T06:23:56.090Z,11.94
2023-02-18T06:24:55.052Z,11.90
2023-02-18T06:25:55.150Z,11.65
2023-02-18T06:26:55.047Z,11.77
2023-02-18T06:27:55.044Z,11.77
2023-02-18T06:28:55.035Z,11.85
2023-02-18T06:29:55.054Z,11.85
2023-02-18T06:30:55.577Z,11.86
2023-02-18T06:31:55.108Z,11.82
2023-02-18T06:32:55.029Z,11.86
2023-02-18T06:33:55.004Z,11.82
2023-02-18T06:34:54.979Z,11.87
2023-02-18T06:35:55.002Z,11.93
2023-02-18T06:36:55.015Z,11.87
2023-02-18T06:37:54.980Z,11.93
2023-02-18T06:38:54.991Z,11.96
2023-02-18T06:39:54.977Z,11.85
2023-02-18T06:40:54.938Z,11.99
2023-02-18T06:41:54.936Z,11.96
2023-02-18T06:42:54.944Z,12.04
2023-02-18T06:43:54.916Z,12.06
2023-02-18T06:44:54.925Z,12.04
2023-02-18T06:45:54.902Z,12.04
2023-02-18T06:46:54.953Z,12.05
2023-02-18T06:47:54.884Z,12.09
2023-02-18T06:48:54.880Z,12.01
2023-02-18T06:49:54.872Z,12.05
2023-02-18T06:50:54.877Z,11.86
2023-02-18T06:51:54.855Z,12.05
2023-02-18T06:52:54.865Z,12.12
2023-02-18T06:53:54.847Z,12.02
2023-02-18T06:54:54.827Z,12.11
2023-02-18T06:55:54.837Z,11.99
2023-02-18T06:56:54.830Z,12.11
2023-02-18T06:57:54.811Z,12.06
2023-02-18T06:58:54.819Z,12.09
2023-02-18T06:59:54.863Z,12.06
2023-02-18T07:00:54.824Z,12.06
2023-02-18T07:01:54.803Z,12.16
2023-02-18T07:02:54.828Z,12.24
2023-02-18T07:03:54.819Z,12.11
2023-02-18T07:04:54.768Z,12.11
2023-02-18T07:05:54.768Z,12.13
2023-02-18T07:06:54.764Z,12.19
2023-02-18T07:07:54.746Z,12.30
2023-02-18T07:08:54.790Z,12.15
2023-02-18T07:09:54.737Z,12.20
2023-02-18T07:10:54.726Z,12.20
2023-02-18T07:11:54.713Z,12.21
2023-02-18T07:12:54.726Z,12.23
2023-02-18T07:13:54.711Z,12.19
2023-02-18T07:14:54.704Z,12.11
2023-02-18T07:15:54.692Z,12.08
2023-02-18T07:16:54.699Z,12.15
2023-02-18T07:17:54.675Z,12.19
2023-02-18T07:18:54.692Z,12.16
2023-02-18T07:19:54.670Z,12.16
2023-02-18T07:20:54.664Z,12.19
2023-02-18T07:21:54.644Z,12.23
2023-02-18T07:22:54.631Z,12.24
2023-02-18T07:23:54.641Z,12.15
2023-02-18T07:24:54.620Z,12.16
2023-02-18T07:25:54.623Z,12.11
2023-02-18T07:26:54.620Z,12.01
2023-02-18T07:27:54.607Z,11.97
2023-02-18T07:28:54.624Z,12.12
2023-02-18T07:29:54.610Z,12.01
2023-02-18T07:30:54.611Z,12.11
2023-02-18T07:31:54.660Z,12.12
2023-02-18T07:32:54.567Z,12.16
2023-02-18T07:33:54.590Z,12.02
2023-02-18T07:34:54.569Z,12.13
2023-02-18T07:35:54.558Z,12.26
2023-02-18T07:36:54.553Z,12.37
2023-02-18T07:37:54.544Z,12.23
2023-02-18T07:38:54.555Z,12.26
2023-02-18T07:39:54.533Z,12.26
2023-02-18T07:40:54.563Z,12.19
2023-02-18T07:41:54.511Z,12.19
2023-02-18T07:42:54.525Z,12.16
2023-02-18T07:43:54.512Z,12.21
2023-02-18T07:44:54.493Z,12.30
2023-02-18T07:45:54.606Z,12.27
2023-02-18T07:46:54.471Z,12.27
2023-02-18T07:47:54.466Z,12.41
2023-02-18T07:48:54.520Z,12.26
2023-02-18T07:49:54.481Z,12.27
2023-02-18T07:50:54.445Z,12.20
2023-02-18T07:51:54.443Z,12.16
2023-02-18T07:52:54.450Z,12.24
2023-02-18T07:53:54.434Z,12.31
2023-02-18T07:54:54.440Z,12.26
2023-02-18T07:55:54.434Z,12.27
2023-02-18T07:56:54.472Z,12.24
2023-02-18T07:57:54.421Z,12.29
2023-02-18T07:58:54.403Z,12.19
2023-02-18T07:59:54.421Z,12.11
2023-02-18T08:00:54.408Z,12.05
2023-02-18T08:01:54.454Z,12.11
2023-02-18T08:02:54.387Z,12.15
2023-02-18T08:03:54.391Z,12.19
2023-02-18T08:04:54.360Z,12.09
2023-02-18T08:05:55.349Z,12.05
2023-02-18T08:06:54.359Z,12.05
2023-02-18T08:07:54.341Z,12.08
2023-02-18T08:08:54.364Z,12.08
2023-02-18T08:09:54.337Z,12.20
2023-02-18T08:10:54.329Z,12.13
2023-02-18T08:11:54.336Z,12.26
2023-02-18T08:12:54.327Z,12.20
2023-02-18T08:13:55.105Z,12.26
2023-02-18T08:14:54.300Z,12.19
2023-02-18T08:15:54.335Z,12.20
2023-02-18T08:16:54.320Z,12.21
2023-02-18T08:17:54.279Z,12.16
2023-02-18T08:18:54.281Z,12.26
2023-02-18T08:19:54.269Z,12.21
2023-02-18T08:20:54.282Z,12.27
2023-02-18T08:21:54.244Z,12.19
2023-02-18T08:22:54.247Z,12.13
2023-02-18T08:23:54.276Z,12.05
2023-02-18T08:24:54.243Z,12.19
2023-02-18T08:25:54.237Z,12.30
2023-02-18T08:27:00.802Z,12.21
2023-02-18T08:27:56.301Z,12.12
2023-02-18T08:28:54.328Z,12.06
2023-02-18T08:29:54.234Z,12.26
2023-02-18T08:30:54.269Z,12.26
2023-02-18T08:31:54.333Z,12.09
2023-02-18T08:32:54.219Z,12.12
2023-02-18T08:33:55.200Z,12.29
2023-02-18T08:34:54.171Z,12.48
2023-02-18T08:35:54.165Z,12.29
2023-02-18T08:36:54.222Z,12.29
2023-02-18T08:37:54.515Z,12.34
2023-02-18T08:38:54.184Z,12.33
2023-02-18T08:39:54.141Z,12.38
2023-02-18T08:40:54.137Z,12.39
2023-02-18T08:41:54.119Z,12.34
2023-02-18T08:42:54.142Z,12.37
2023-02-18T08:43:54.276Z,12.20
2023-02-18T08:44:54.150Z,12.44
2023-02-18T08:45:54.120Z,12.42
2023-02-18T08:46:54.156Z,12.45
2023-02-18T08:48:18.460Z,12.41
2023-02-18T08:48:55.573Z,12.45
2023-02-18T08:49:55.076Z,12.45
2023-02-18T08:50:54.056Z,12.31
2023-02-18T08:51:54.060Z,12.46
2023-02-18T08:52:54.090Z,12.57
2023-02-18T08:53:54.033Z,12.57
2023-02-18T08:54:54.031Z,12.64
2023-02-18T08:55:54.037Z,12.42
2023-02-18T08:56:54.061Z,12.49
2023-02-18T08:57:54.013Z,12.54
2023-02-18T08:58:54.021Z,12.57
2023-02-18T08:59:54.004Z,12.59
2023-02-18T09:00:54.007Z,12.57
2023-02-18T09:01:53.990Z,12.46
2023-02-18T09:02:54.003Z,12.45
2023-02-18T09:03:54.045Z,12.45
2023-02-18T09:04:53.969Z,12.44
2023-02-18T09:05:53.970Z,12.38
2023-02-18T09:06:53.967Z,12.46
2023-02-18T09:07:53.948Z,12.46
2023-02-18T09:08:53.985Z,12.52
2023-02-18T09:09:53.947Z,12.64
2023-02-18T09:10:53.945Z,12.62
2023-02-18T09:11:53.980Z,12.60
2023-02-18T09:12:53.926Z,12.63
2023-02-18T09:13:53.948Z,12.57
2023-02-18T09:14:53.980Z,12.59
2023-02-18T09:15:53.944Z,12.57
2023-02-18T09:16:53.906Z,12.54
2023-02-18T09:17:53.911Z,12.59
2023-02-18T09:18:53.911Z,12.63
2023-02-18T09:19:53.890Z,12.70
2023-02-18T09:20:53.873Z,12.74
2023-02-18T09:21:53.858Z,12.62
2023-02-18T09:22:53.880Z,12.64
2023-02-18T09:23:53.868Z,12.64
2023-02-18T09:24:53.857Z,12.63
2023-02-18T09:25:53.838Z,12.51
2023-02-18T09:26:53.851Z,12.78
2023-02-18T09:27:53.815Z,12.75
2023-02-18T09:28:53.857Z,12.79
2023-02-18T09:29:53.816Z,12.70
2023-02-18T09:30:53.913Z,12.84
2023-02-18T09:31:53.938Z,12.71
2023-02-18T09:32:53.818Z,12.84
2023-02-18T09:33:53.838Z,12.96
2023-02-18T09:34:53.783Z,12.87
2023-02-18T09:35:53.766Z,12.78
2023-02-18T09:36:53.762Z,12.84
2023-02-18T09:37:53.825Z,12.79
2023-02-18T09:38:53.781Z,12.81
2023-02-18T09:39:53.802Z,12.88
2023-02-18T09:40:53.724Z,12.87
2023-02-18T09:41:53.751Z,12.74
2023-02-18T09:42:53.754Z,12.71
2023-02-18T09:43:53.741Z,12.78
2023-02-18T09:44:53.714Z,12.70
2023-02-18T09:45:53.754Z,12.85
2023-02-18T09:46:53.703Z,12.64
2023-02-18T09:47:53.698Z,12.71
2023-02-18T09:48:53.704Z,12.75
2023-02-18T09:49:53.715Z,12.84
2023-02-18T09:50:53.701Z,12.78
2023-02-18T09:51:53.689Z,12.79
2023-02-18T09:52:53.688Z,12.78
2023-02-18T09:53:53.694Z,12.85
2023-02-18T09:54:53.648Z,12.77
2023-02-18T09:55:53.662Z,12.95
2023-02-18T09:56:53.643Z,12.96
2023-02-18T09:57:53.696Z,12.96
2023-02-18T09:58:53.669Z,13.07
2023-02-18T09:59:53.622Z,12.88
2023-02-18T10:00:53.618Z,12.89
2023-02-18T10:01:53.678Z,13.12
2023-02-18T10:02:53.592Z,13.21
2023-02-18T10:03:55.696Z,13.20
2023-02-18T10:04:54.579Z,13.32
2023-02-18T10:05:53.596Z,13.24
2023-02-18T10:06:53.613Z,13.46
2023-02-18T10:07:53.559Z,13.43
2023-02-18T10:08:53.549Z,13.55
2023-02-18T10:09:53.566Z,13.52
2023-02-18T10:10:53.545Z,13.49
2023-02-18T10:11:53.630Z,13.51
2023-02-18T10:12:54.092Z,13.67
2023-02-18T10:13:53.532Z,14.42
2023-02-18T10:14:53.557Z,14.34
2023-02-18T10:15:53.557Z,13.94
2023-02-18T10:16:53.516Z,13.63
2023-02-18T10:17:53.644Z,13.62
2023-02-18T10:18:53.497Z,13.62
2023-02-18T10:19:53.504Z,13.51
2023-02-18T10:20:53.486Z,13.40
2023-02-18T10:21:53.858Z,13.52
2023-02-18T10:22:53.474Z,13.55
2023-02-18T10:23:53.523Z,13.38
2023-02-18T10:24:53.465Z,13.52
2023-02-18T10:25:53.447Z,13.43
2023-02-18T10:26:53.489Z,13.30
2023-02-18T10:27:53.426Z,13.22
2023-02-18T10:28:53.441Z,13.29
2023-02-18T10:29:53.422Z,13.22
2023-02-18T10:30:53.474Z,13.06
2023-02-18T10:31:53.600Z,13.12
2023-02-18T10:32:53.405Z,13.17
2023-02-18T10:33:53.420Z,13.20
2023-02-18T10:34:53.437Z,13.24
2023-02-18T10:35:53.395Z,13.29
2023-02-18T10:36:53.428Z,13.46
2023-02-18T10:37:53.394Z,13.49
2023-02-18T10:38:53.377Z,13.56
2023-02-18T10:39:53.370Z,13.43
2023-02-18T10:40:53.382Z,13.40
2023-02-18T10:41:53.370Z,13.54
2023-02-18T10:42:53.377Z,13.47
2023-02-18T10:43:54.075Z,13.62
2023-02-18T10:44:53.385Z,13.69
2023-02-18T10:45:53.339Z,13.62
2023-02-18T10:46:53.383Z,13.58
2023-02-18T10:47:53.330Z,13.62
2023-02-18T10:48:53.324Z,13.69
2023-02-18T10:49:53.316Z,13.63
2023-02-18T10:50:53.291Z,13.79
2023-02-18T10:51:53.301Z,13.55
2023-02-18T10:52:53.317Z,13.62
2023-02-18T10:53:53.314Z,13.49
2023-02-18T10:54:53.290Z,13.65
2023-02-18T10:55:53.295Z,13.52
2023-02-18T10:56:53.260Z,13.46
2023-02-18T10:57:53.256Z,13.54
2023-02-18T10:58:53.253Z,13.49
2023-02-18T10:59:53.302Z,13.56
2023-02-18T11:00:53.261Z,13.56
2023-02-18T11:01:53.277Z,13.41
2023-02-18T11:02:53.226Z,13.62
2023-02-18T11:03:54.234Z,13.51
2023-02-18T11:04:53.294Z,13.43
2023-02-18T11:05:53.217Z,13.15
2023-02-18T11:06:53.190Z,13.20
2023-02-18T11:07:53.193Z,13.17
2023-02-18T11:08:53.177Z,13.29
2023-02-18T11:09:53.179Z,13.14
2023-02-18T11:10:53.184Z,13.14
2023-02-18T11:12:01.396Z,13.07
2023-02-18T11:12:55.161Z,13.11
2023-02-18T11:13:53.158Z,13.00
2023-02-18T11:14:53.186Z,13.06
2023-02-18T11:15:53.266Z,13.14
2023-02-18T11:16:53.153Z,13.12
2023-02-18T11:17:53.163Z,12.93
2023-02-18T11:18:53.148Z,12.88
2023-02-18T11:19:53.109Z,13.03
2023-02-18T11:20:53.152Z,12.87
2023-02-18T11:21:53.138Z,12.93
2023-02-18T11:22:53.136Z,12.95
2023-02-18T11:23:53.079Z,12.85
2023-02-18T11:24:53.136Z,12.87
2023-02-18T11:25:53.123Z,12.81
2023-02-18T11:26:53.059Z,12.75
2023-02-18T11:27:53.101Z,12.69
2023-02-18T11:28:53.068Z,12.70
2023-02-18T11:29:53.082Z,12.62
2023-02-18T11:30:53.044Z,12.66
2023-02-18T11:31:53.089Z,12.77
2023-02-18T11:32:54.048Z,12.59
2023-02-18T11:33:53.045Z,12.62
2023-02-18T11:34:53.039Z,12.54
2023-02-18T11:35:53.037Z,12.63
2023-02-18T11:36:53.583Z,12.57
2023-02-18T11:37:53.024Z,12.59
2023-02-18T11:38:53.025Z,12.60
2023-02-18T11:39:53.031Z,12.70
2023-02-18T11:40:52.998Z,12.70
2023-02-18T11:41:52.975Z,12.66
2023-02-18T11:42:52.985Z,12.69
2023-02-18T11:43:53.003Z,12.69
2023-02-18T11:44:52.969Z,12.64
2023-02-18T11:45:52.979Z,12.69
2023-02-18T11:46:52.991Z,12.57
2023-02-18T11:47:52.940Z,12.75
2023-02-18T11:48:52.951Z,12.78
2023-02-18T11:49:52.935Z,12.77
2023-02-18T11:50:52.927Z,12.59
2023-02-18T11:51:52.917Z,12.51
2023-02-18T11:52:52.900Z,12.62
2023-02-18T11:53:53.131Z,12.60
2023-02-18T11:54:52.929Z,12.63
2023-02-18T11:55:52.892Z,12.59
2023-02-18T11:56:53.888Z,12.54
2023-02-18T11:57:53.866Z,12.71
2023-02-18T11:58:52.875Z,12.62
2023-02-18T11:59:52.874Z,12.67
2023-02-18T12:00:53.047Z,12.74
2023-02-18T12:01:52.901Z,12.57
2023-02-18T12:02:52.873Z,12.45
2023-02-18T12:03:52.845Z,12.57
2023-02-18T12:04:52.863Z,12.56
2023-02-18T12:05:52.841Z,12.46
2023-02-18T12:06:52.851Z,12.59
2023-02-18T12:07:52.806Z,12.69
2023-02-18T12:08:52.817Z,12.54
2023-02-18T12:09:52.799Z,12.59
2023-02-18T12:10:52.794Z,12.57
2023-02-18T12:11:52.780Z,12.66
2023-02-18T12:12:52.813Z,12.69
2023-02-18T12:13:52.789Z,12.79
2023-02-18T12:14:52.774Z,12.87
2023-02-18T12:15:52.782Z,12.99
2023-02-18T12:16:52.827Z,12.92
2023-02-18T12:17:52.784Z,12.84
2023-02-18T12:18:53.755Z,12.71
2023-02-18T12:19:52.776Z,13.06
2023-02-18T12:20:52.740Z,12.97
2023-02-18T12:21:52.777Z,12.96
2023-02-18T12:22:52.721Z,12.96
2023-02-18T12:23:52.708Z,12.77
2023-02-18T12:24:52.718Z,12.85
2023-02-18T12:25:52.752Z,12.93
2023-02-18T12:26:52.745Z,12.89
2023-02-18T12:27:52.710Z,12.75
2023-02-18T12:28:52.668Z,12.84
2023-02-18T12:29:52.692Z,12.87
2023-02-18T12:30:52.682Z,12.79
2023-02-18T12:31:52.693Z,12.84
2023-02-18T12:32:52.652Z,12.79
2023-02-18T12:33:52.674Z,12.74
2023-02-18T12:34:52.682Z,12.82
2023-02-18T12:35:52.620Z,12.78
2023-02-18T12:36:52.667Z,12.87
2023-02-18T12:37:52.655Z,12.78
2023-02-18T12:38:52.688Z,12.82
2023-02-18T12:39:52.603Z,12.66
2023-02-18T12:40:52.657Z,12.63
2023-02-18T12:41:52.607Z,12.78
2023-02-18T12:42:52.643Z,12.71
2023-02-18T12:43:52.604Z,12.75
2023-02-18T12:44:52.573Z,12.75
2023-02-18T12:45:52.685Z,12.71
2023-02-18T12:46:52.553Z,12.71
2023-02-18T12:47:52.605Z,12.81
2023-02-18T12:48:52.557Z,12.85
2023-02-18T12:49:52.545Z,12.79
2023-02-18T12:50:52.525Z,12.66
2023-02-18T12:51:52.545Z,12.60
2023-02-18T12:52:52.533Z,12.78